Time;durP1;ratioP1;P1;durP2;ratioP2;P2;SDS_P1;SDS_P2;PMS_P1;PMS_P2;Temp;Humidity;BMP_temperature;BMP_pressure;BME280_temperature;BME280_humidity;BME280_pressure;Samples;Min_cycle;Max_cycle;Signal;HPM_P1;HPM_P2
2022/10/14 00:02:28;;;;;;;13.98;10.10;;;;;;;16.25;55.31;101685.03;5028872;28;20465;-62
2022/10/14 00:04:54;;;;;;;13.63;9.32;;;;;;;16.19;55.42;101685.75;5023119;28;20407;-63
2022/10/14 00:07:19;;;;;;;12.73;9.90;;;;;;;16.19;55.32;101683.91;5025039;28;20773;-64
2022/10/14 00:09:45;;;;;;;14.40;9.77;;;;;;;16.16;55.41;101684.28;5024236;28;20384;-63
2022/10/14 00:12:10;;;;;;;13.00;9.90;;;;;;;16.15;55.47;101684.44;5025381;28;20900;-63
2022/10/14 00:14:36;;;;;;;18.30;10.43;;;;;;;16.09;55.42;101671.81;5025162;28;20435;-64
2022/10/14 00:19:00;;;;;;;15.63;10.23;;;;;;;16.02;55.68;101667.19;5072776;27;20412;-62
2022/10/14 00:21:27;;;;;;;13.18;10.32;;;;;;;16.01;55.73;101670.06;5065051;28;20415;-62
2022/10/14 00:23:53;;;;;;;15.80;10.33;;;;;;;16.03;55.49;101666.19;5065239;28;20554;-62
2022/10/14 00:26:22;;;;;;;15.50;9.65;;;;;;;16.00;55.62;101658.50;5064714;28;21022;-61
2022/10/14 00:30:20;;;;;;;15.43;10.05;;;;;;;15.93;55.82;101660.25;5053295;28;20465;-63
2022/10/14 00:37:03;;;;;;;14.43;10.07;;;;;;;15.82;55.93;101650.00;5033363;28;20465;-63
2022/10/14 00:40:57;;;;;;;13.52;10.20;;;;;;;15.79;56.03;101656.56;5034722;28;20408;-62
2022/10/14 00:48:30;;;;;;;16.60;9.85;;;;;;;15.66;56.30;101650.97;5070900;27;20430;-63
2022/10/14 00:52:07;;;;;;;15.32;9.77;;;;;;;15.60;56.31;101657.84;5052777;28;20915;-63
2022/10/14 00:57:30;;;;;;;15.80;10.38;;;;;;;15.52;56.58;101647.25;5052996;27;20398;-63
2022/10/14 01:01:49;;;;;;;15.05;11.98;;;;;;;15.46;56.39;101642.59;5029597;28;20411;-64
2022/10/14 01:04:15;;;;;;;14.40;10.73;;;;;;;15.42;56.34;101658.16;5024657;28;20407;-63
2022/10/14 01:11:29;;;;;;;13.57;10.60;;;;;;;15.33;56.49;101653.91;5029668;28;20405;-62
2022/10/14 01:14:54;;;;;;;15.65;10.82;;;;;;;15.32;56.48;101649.56;5071567;27;20408;-62
2022/10/14 01:17:52;;;;;;;19.20;10.98;;;;;;;15.23;56.87;101651.47;5069592;28;20417;-60
2022/10/14 01:20:36;;;;;;;14.63;10.50;;;;;;;15.21;56.75;101648.13;5066760;28;20388;-63
2022/10/14 01:24:04;;;;;;;17.67;11.52;;;;;;;15.21;56.77;101655.31;5051133;27;20413;-63
2022/10/14 01:27:20;;;;;;;14.57;10.90;;;;;;;15.19;56.68;101657.34;5042746;28;20492;-62
2022/10/14 01:30:07;;;;;;;15.63;10.95;;;;;;;15.13;56.84;101647.38;5042947;28;20394;-61
2022/10/14 01:32:35;;;;;;;16.50;11.13;;;;;;;15.11;56.87;101647.56;5045026;28;20436;-62
2022/10/14 01:38:48;;;;;;;15.95;11.10;;;;;;;15.00;57.24;101640.78;5044957;28;20459;-63
2022/10/14 01:41:22;;;;;;;14.20;10.70;;;;;;;15.00;56.80;101650.59;5040124;28;20411;-63
2022/10/14 01:43:50;;;;;;;15.07;11.02;;;;;;;14.98;57.05;101656.16;5040854;28;20404;-63
2022/10/14 01:46:20;;;;;;;15.30;10.65;;;;;;;14.93;56.94;101642.50;5040028;28;20461;-63
2022/10/14 01:48:50;;;;;;;15.13;10.95;;;;;;;14.93;56.87;101644.31;5042828;28;20823;-62
2022/10/14 01:51:28;;;;;;;14.60;10.95;;;;;;;14.88;56.95;101635.00;5041180;28;20383;-63
2022/10/14 01:53:59;;;;;;;14.18;10.77;;;;;;;14.86;56.93;101637.00;5041572;28;20397;-64
2022/10/14 01:57:44;;;;;;;13.30;10.80;;;;;;;14.83;56.80;101633.84;5068708;28;20411;-62
2022/10/14 02:00:10;;;;;;;12.48;10.60;;;;;;;14.78;56.75;101628.22;5053961;28;20442;-62
2022/10/14 02:02:37;;;;;;;13.60;10.27;;;;;;;14.74;56.65;101633.06;5065427;28;20380;-61
2022/10/14 02:05:07;;;;;;;15.30;10.68;;;;;;;14.75;56.67;101636.56;5053825;28;20384;-63
2022/10/14 02:07:46;;;;;;;13.50;10.68;;;;;;;14.72;56.68;101633.25;5065323;28;20890;-62
2022/10/14 02:10:53;;;;;;;14.13;10.60;;;;;;;14.70;56.86;101629.91;5053667;28;20388;-63
2022/10/14 02:13:33;;;;;;;17.10;9.90;;;;;;;14.67;56.91;101622.25;5053285;28;20436;-63
2022/10/14 02:16:29;;;;;;;15.73;10.43;;;;;;;14.65;56.64;101629.59;5069497;28;20408;-62
2022/10/14 02:19:16;;;;;;;14.00;10.25;;;;;;;14.68;56.70;101631.94;5028030;28;20864;-62
2022/10/14 02:22:42;;;;;;;15.02;11.18;;;;;;;14.64;56.80;101627.97;5054400;28;20405;-62
2022/10/14 02:25:19;;;;;;;13.07;10.50;;;;;;;14.62;56.74;101629.13;5033358;28;20781;-62
2022/10/14 02:27:48;;;;;;;13.38;10.48;;;;;;;14.62;56.98;101632.66;5034821;28;20389;-61
2022/10/14 02:30:15;;;;;;;14.30;10.48;;;;;;;14.62;56.79;101631.78;5032163;28;20398;-61
2022/10/14 02:32:42;;;;;;;17.15;10.20;;;;;;;14.64;56.93;101635.09;5038168;28;20386;-62
2022/10/14 02:37:57;;;;;;;14.45;10.30;;;;;;;14.63;56.64;101615.59;5098667;27;20410;-63
2022/10/14 02:40:44;;;;;;;12.90;10.30;;;;;;;14.60;56.68;101612.47;5086710;28;20826;-64
2022/10/14 02:43:10;;;;;;;14.15;10.45;;;;;;;14.59;56.78;101619.63;5064521;28;20386;-62
2022/10/14 02:45:37;;;;;;;11.75;10.10;;;;;;;14.60;56.44;101625.81;5085367;28;20448;-63
2022/10/14 02:48:04;;;;;;;14.48;10.70;;;;;;;14.63;56.64;101634.28;5087107;28;20394;-62
2022/10/14 02:50:29;;;;;;;15.45;10.18;;;;;;;14.58;56.92;101625.16;5086504;28;20394;-63
2022/10/14 02:56:59;;;;;;;13.35;10.35;;;;;;;14.59;56.45;101632.16;5097811;27;20460;-63
2022/10/14 03:00:09;;;;;;;14.32;10.27;;;;;;;14.58;56.39;101627.81;5068679;27;20413;-62
2022/10/14 03:02:35;;;;;;;13.70;9.77;;;;;;;14.53;56.52;101623.81;5046642;28;20405;-63
2022/10/14 03:05:00;;;;;;;14.23;10.20;;;;;;;14.52;56.69;101622.13;5046531;28;20393;-62
2022/10/14 03:07:26;;;;;;;14.25;10.63;;;;;;;14.54;56.34;101625.44;5046519;28;20473;-63
2022/10/14 03:09:51;;;;;;;13.73;10.20;;;;;;;14.57;56.53;101621.63;5046365;28;20378;-62
2022/10/14 03:13:04;;;;;;;14.77;10.70;;;;;;;14.56;56.61;101627.94;5048582;28;20410;-62
2022/10/14 03:18:29;;;;;;;14.30;10.45;;;;;;;14.53;56.33;101622.97;5054091;28;20767;-63
2022/10/14 03:20:55;;;;;;;14.98;10.48;;;;;;;14.52;56.35;101631.97;5026983;28;20437;-62
2022/10/14 03:25:07;;;;;;;15.75;10.57;;;;;;;14.49;56.67;101624.31;5063227;28;20467;-62
2022/10/14 03:27:33;;;;;;;14.13;10.40;;;;;;;14.45;56.55;101623.00;5046947;28;20406;-63
2022/10/14 03:34:54;;;;;;;17.02;11.15;;;;;;;14.38;56.31;101627.38;5045240;28;20411;-63
2022/10/14 03:37:19;;;;;;;15.68;11.18;;;;;;;14.35;56.25;101617.88;5017940;28;20405;-63
2022/10/14 03:39:45;;;;;;;16.27;11.10;;;;;;;14.39;56.32;101634.38;5021889;28;20384;-63
2022/10/14 03:42:10;;;;;;;21.00;11.38;;;;;;;14.35;56.33;101631.22;5026881;28;20430;-63
2022/10/14 03:44:35;;;;;;;15.17;10.90;;;;;;;14.29;56.42;101630.06;5026866;28;20383;-64
2022/10/14 03:47:21;;;;;;;16.83;11.02;;;;;;;14.26;56.70;101630.41;5090712;27;20408;-62
2022/10/14 03:51:20;;;;;;;18.73;11.15;;;;;;;14.23;56.01;101628.09;5060993;27;20915;-62
2022/10/14 03:53:45;;;;;;;18.20;11.35;;;;;;;14.21;56.16;101623.94;5046506;28;20463;-62
2022/10/14 03:58:21;;;;;;;16.63;11.05;;;;;;;14.21;56.26;101621.28;5051514;28;20410;-62
2022/10/14 04:00:47;;;;;;;16.88;11.13;;;;;;;14.21;56.30;101623.94;5040270;28;20453;-62
2022/10/14 04:03:12;;;;;;;17.33;11.30;;;;;;;14.18;56.33;101622.44;5039096;28;20480;-63
2022/10/14 04:05:38;;;;;;;16.83;10.70;;;;;;;14.18;56.14;101624.28;5046759;28;20428;-62
2022/10/14 04:08:03;;;;;;;17.00;11.00;;;;;;;14.17;56.40;101628.78;5046697;28;20393;-62
2022/10/14 04:10:29;;;;;;;17.27;11.40;;;;;;;14.15;56.33;101620.94;5042624;28;20391;-63
2022/10/14 04:12:55;;;;;;;21.33;12.20;;;;;;;14.15;56.20;101623.63;5026966;28;20395;-64
2022/10/14 04:15:40;;;;;;;17.85;11.55;;;;;;;14.14;56.41;101618.44;5086822;27;21641;-64
2022/10/14 04:18:53;;;;;;;18.73;12.55;;;;;;;14.13;56.43;101620.28;5047599;28;20806;-62
2022/10/14 04:23:01;;;;;;;18.67;11.80;;;;;;;14.13;56.33;101619.44;5035751;28;20467;-62
2022/10/14 04:25:47;;;;;;;18.00;11.23;;;;;;;14.12;56.60;101629.28;5086023;27;20459;-62
2022/10/14 04:28:12;;;;;;;18.17;11.27;;;;;;;14.10;56.29;101623.28;5085455;28;20398;-62
2022/10/14 04:30:38;;;;;;;19.87;11.77;;;;;;;14.10;56.40;101620.63;5085825;28;20375;-63
2022/10/14 04:33:03;;;;;;;18.80;11.35;;;;;;;14.07;56.50;101615.63;5086444;28;20933;-63
2022/10/14 04:35:29;;;;;;;14.27;11.60;;;;;;;14.10;56.18;101611.81;5085611;28;20884;-61
2022/10/14 04:37:54;;;;;;;21.93;13.70;;;;;;;14.09;56.27;101618.13;5086097;28;20452;-63
2022/10/14 04:41:55;;;;;;;21.70;12.60;;;;;;;14.07;56.35;101614.81;5092673;27;20432;-64
2022/10/14 04:44:21;;;;;;;20.67;13.00;;;;;;;14.04;56.20;101607.13;5086299;28;20402;-64
2022/10/14 04:46:46;;;;;;;16.27;11.70;;;;;;;14.08;56.12;101613.78;5085710;28;20410;-63
2022/10/14 04:49:13;;;;;;;16.90;11.98;;;;;;;14.01;56.51;101608.31;5086666;28;20428;-63
2022/10/14 04:51:39;;;;;;;23.45;12.40;;;;;;;14.06;55.98;101613.97;5085060;28;20382;-64
2022/10/14 04:54:04;;;;;;;23.50;12.60;;;;;;;14.04;56.29;101607.13;5076870;28;20433;-64
2022/10/14 04:56:30;;;;;;;23.92;12.27;;;;;;;14.05;56.45;101601.63;5084005;28;20392;-63
2022/10/14 04:58:55;;;;;;;23.40;14.03;;;;;;;14.06;56.22;101610.47;5083252;28;20382;-65
2022/10/14 05:01:21;;;;;;;21.43;13.20;;;;;;;14.06;56.22;101606.00;5085207;28;20509;-63
2022/10/14 05:03:47;;;;;;;19.63;12.40;;;;;;;14.04;56.13;101601.81;5086085;28;20382;-61
2022/10/14 05:06:13;;;;;;;23.40;13.70;;;;;;;14.02;56.08;101603.81;5086177;28;20382;-62
2022/10/14 05:08:38;;;;;;;31.95;15.40;;;;;;;14.03;55.90;101608.16;5086226;28;20400;-62
2022/10/14 05:11:04;;;;;;;30.63;16.00;;;;;;;14.06;56.19;101613.97;5085930;28;20383;-62
2022/10/14 05:13:30;;;;;;;32.80;17.38;;;;;;;14.06;55.86;101613.13;5086563;28;20431;-63
2022/10/14 05:15:55;;;;;;;35.55;18.42;;;;;;;14.05;55.92;101616.81;5076855;28;20386;-62
2022/10/14 05:18:21;;;;;;;38.58;19.52;;;;;;;14.07;56.00;101615.63;5070326;28;20906;-64
2022/10/14 05:20:46;;;;;;;42.67;21.60;;;;;;;14.04;56.14;101602.63;5076470;28;20451;-60
2022/10/14 05:23:12;;;;;;;36.13;20.85;;;;;;;14.07;55.93;101609.47;5076779;28;20384;-62
2022/10/14 05:25:37;;;;;;;38.27;21.43;;;;;;;14.10;55.85;101615.28;5078529;28;20379;-63
2022/10/14 05:28:03;;;;;;;33.33;19.55;;;;;;;14.19;55.51;101625.91;5072155;28;20386;-61
2022/10/14 05:30:29;;;;;;;29.00;17.70;;;;;;;14.19;55.41;101612.59;5073601;28;20386;-62
2022/10/14 05:32:55;;;;;;;34.10;17.20;;;;;;;14.26;55.19;101622.41;5076135;28;20476;-61
2022/10/14 05:35:20;;;;;;;25.83;16.90;;;;;;;14.24;55.36;101613.75;5079840;28;20473;-62
2022/10/14 05:37:46;;;;;;;24.17;15.47;;;;;;;14.30;55.37;101622.91;5074202;28;20418;-62
2022/10/14 05:40:11;;;;;;;24.65;14.43;;;;;;;14.31;55.26;101614.75;5075884;28;20460;-62
2022/10/14 05:42:37;;;;;;;19.33;13.70;;;;;;;14.38;55.12;101622.84;5077879;28;20378;-63
2022/10/14 05:45:04;;;;;;;20.38;12.68;;;;;;;14.46;54.93;101630.03;5076145;28;20383;-62
2022/10/14 05:47:29;;;;;;;21.73;12.63;;;;;;;14.53;54.61;101629.16;5074396;28;20466;-62
2022/10/14 05:49:55;;;;;;;21.13;12.97;;;;;;;14.57;54.63;101626.97;5075732;28;20821;-62
2022/10/14 05:52:20;;;;;;;22.08;12.13;;;;;;;14.64;54.35;101625.28;5063886;28;20391;-62
2022/10/14 05:56:48;;;;;;;21.53;12.23;;;;;;;14.77;54.02;101626.56;5093811;27;20815;-62
2022/10/14 05:59:14;;;;;;;26.87;12.13;;;;;;;14.91;53.83;101628.50;5086968;28;20390;-62
2022/10/14 06:01:39;;;;;;;19.97;11.60;;;;;;;15.02;53.40;101627.25;5086921;28;20382;-62
2022/10/14 06:04:05;;;;;;;19.27;11.20;;;;;;;15.11;53.21;101628.84;5092118;28;20380;-62
2022/10/14 06:06:31;;;;;;;16.40;11.17;;;;;;;15.24;53.11;101639.75;5094744;28;20380;-62
2022/10/14 06:08:56;;;;;;;19.10;11.63;;;;;;;15.41;52.76;101635.16;5095161;28;20373;-63
2022/10/14 06:11:22;;;;;;;22.48;12.32;;;;;;;15.57;52.44;101641.34;5093675;28;20385;-62
2022/10/14 06:13:47;;;;;;;27.83;14.13;;;;;;;15.74;52.05;101634.88;5091941;28;20378;-64
2022/10/14 06:16:13;;;;;;;32.63;18.20;;;;;;;16.10;51.50;101644.03;5086013;28;20414;-63
2022/10/14 06:18:39;;;;;;;28.50;15.35;;;;;;;16.35;50.97;101645.44;5085545;28;20393;-61
2022/10/14 06:21:05;;;;;;;29.52;13.85;;;;;;;16.63;50.45;101640.22;5086435;28;20423;-63
2022/10/14 06:23:31;;;;;;;25.38;14.50;;;;;;;16.97;49.68;101651.38;5086502;28;20429;-62
2022/10/14 06:25:57;;;;;;;22.55;13.73;;;;;;;17.33;49.15;101653.19;5079806;28;20376;-63
2022/10/14 06:28:22;;;;;;;22.40;14.00;;;;;;;17.53;48.59;101658.72;5086454;28;20390;-62
2022/10/14 06:30:52;;;;;;;21.57;12.90;;;;;;;17.76;47.98;101648.59;5093149;28;20823;-62
2022/10/14 06:33:18;;;;;;;23.55;13.10;;;;;;;17.82;47.89;101638.94;5086193;28;20434;-62
2022/10/14 06:35:44;;;;;;;18.75;12.38;;;;;;;18.09;47.43;101644.50;5085940;28;20409;-62
2022/10/14 06:38:09;;;;;;;20.73;12.57;;;;;;;18.12;47.20;101639.59;5085881;28;20432;-62
2022/10/14 06:40:36;;;;;;;17.37;11.73;;;;;;;18.39;46.57;101647.78;5087280;28;20757;-62
2022/10/14 06:43:01;;;;;;;21.73;11.68;;;;;;;18.60;46.05;101644.16;5085701;28;20386;-62
2022/10/14 06:45:27;;;;;;;22.33;11.70;;;;;;;18.75;45.91;101644.00;5085792;28;20390;-63
2022/10/14 06:47:52;;;;;;;21.08;12.02;;;;;;;18.74;45.95;101647.72;5085931;28;20393;-63
2022/10/14 06:50:18;;;;;;;23.77;11.33;;;;;;;18.97;45.54;101644.72;5085027;28;20382;-64
2022/10/14 06:52:45;;;;;;;23.95;10.45;;;;;;;19.12;45.18;101641.84;5084921;28;20888;-63
2022/10/14 06:55:10;;;;;;;21.07;10.43;;;;;;;19.10;44.85;101650.16;5084509;28;20422;-60
2022/10/14 06:57:36;;;;;;;20.20;10.47;;;;;;;19.17;44.87;101646.63;5085395;28;20439;-62
2022/10/14 07:00:02;;;;;;;15.55;9.77;;;;;;;19.27;44.72;101649.75;5085643;28;20409;-63
2022/10/14 07:02:27;;;;;;;19.70;10.55;;;;;;;19.15;44.78;101651.38;5085771;28;20900;-62
2022/10/14 07:04:53;;;;;;;20.80;11.17;;;;;;;19.10;44.95;101651.97;5085664;28;20385;-62
2022/10/14 07:07:18;;;;;;;22.23;10.77;;;;;;;18.81;45.40;101643.22;5082713;28;20383;-63
2022/10/14 07:09:44;;;;;;;18.87;9.97;;;;;;;18.64;46.04;101642.72;5071744;28;20395;-62
2022/10/14 07:12:09;;;;;;;20.10;9.60;;;;;;;18.47;46.52;101646.78;5071695;28;20880;-62
2022/10/14 07:14:35;;;;;;;13.13;9.07;;;;;;;18.36;46.80;101647.34;5071606;28;20804;-62
2022/10/14 07:17:00;;;;;;;16.17;9.87;;;;;;;18.52;46.77;101652.38;5070565;28;20452;-62
2022/10/14 07:19:26;;;;;;;16.05;10.35;;;;;;;18.43;46.99;101649.03;5071553;28;20390;-62
2022/10/14 07:21:51;;;;;;;18.00;9.53;;;;;;;18.46;47.00;101650.50;5071544;28;20409;-63
2022/10/14 07:24:17;;;;;;;13.45;9.35;;;;;;;18.39;47.08;101650.47;5071504;28;20736;-62
2022/10/14 07:26:42;;;;;;;14.87;8.90;;;;;;;18.24;47.80;101647.91;5065181;28;20410;-61
2022/10/14 07:31:53;;;;;;;12.38;9.10;;;;;;;18.32;47.78;101650.44;5051835;28;20488;-61
2022/10/14 07:34:19;;;;;;;13.18;9.50;;;;;;;18.36;47.23;101650.03;5040524;28;20401;-61
2022/10/14 07:36:44;;;;;;;12.27;8.90;;;;;;;18.21;47.52;101651.00;5046409;28;20385;-61
2022/10/14 07:39:10;;;;;;;16.03;9.00;;;;;;;18.28;47.31;101648.34;5046424;28;20384;-62
2022/10/14 07:41:36;;;;;;;15.63;10.30;;;;;;;18.57;46.66;101641.88;5047798;28;20382;-61
2022/10/14 07:44:07;;;;;;;12.80;8.60;;;;;;;18.78;46.95;101645.44;5046794;28;20476;-61
2022/10/14 07:47:00;;;;;;;13.73;8.25;;;;;;;18.82;46.27;101650.25;5096740;27;20455;-62
2022/10/14 07:49:38;;;;;;;15.98;7.90;;;;;;;18.80;46.15;101641.56;5047891;28;20410;-61
2022/10/14 07:52:04;;;;;;;16.42;8.35;;;;;;;18.71;46.32;101654.31;5046657;28;20460;-62
2022/10/14 07:54:31;;;;;;;15.97;8.77;;;;;;;18.49;46.39;101650.09;5044618;28;20417;-61
2022/10/14 07:56:57;;;;;;;12.40;7.78;;;;;;;18.22;46.88;101649.97;5045583;28;20396;-62
2022/10/14 07:59:24;;;;;;;13.18;8.27;;;;;;;18.14;47.18;101650.13;5046561;28;20887;-61
2022/10/14 08:01:51;;;;;;;11.85;7.30;;;;;;;18.18;46.95;101646.00;5046264;28;20400;-62
2022/10/14 08:05:49;;;;;;;12.30;7.60;;;;;;;18.29;46.89;101641.94;5055872;28;20410;-61
2022/10/14 08:08:16;;;;;;;15.77;8.05;;;;;;;18.35;46.71;101651.91;5046632;28;20405;-62
2022/10/14 08:10:41;;;;;;;16.10;7.83;;;;;;;18.37;46.69;101647.16;5046684;28;20386;-61
2022/10/14 08:13:07;;;;;;;13.47;8.07;;;;;;;18.33;46.59;101645.91;5046571;28;20382;-61
2022/10/14 08:15:39;;;;;;;14.35;7.60;;;;;;;18.28;46.67;101638.44;5044702;28;20389;-61
2022/10/14 08:18:06;;;;;;;14.57;7.75;;;;;;;18.18;46.78;101643.31;5050889;28;20436;-61
2022/10/14 08:20:32;;;;;;;15.35;7.38;;;;;;;18.39;46.84;101655.03;5046255;28;20390;-61
2022/10/14 08:22:59;;;;;;;11.18;7.68;;;;;;;18.27;46.67;101639.44;5046393;28;20381;-61
2022/10/14 08:25:25;;;;;;;13.73;7.45;;;;;;;18.49;46.59;101645.56;5043502;28;20765;-62
2022/10/14 08:27:51;;;;;;;9.70;6.95;;;;;;;18.67;45.70;101644.19;5042697;28;20389;-62
2022/10/14 08:30:17;;;;;;;11.75;7.35;;;;;;;18.67;45.70;101638.81;5046487;28;20380;-63
2022/10/14 08:32:42;;;;;;;11.95;6.90;;;;;;;18.65;45.97;101641.69;5046037;28;20386;-62
2022/10/14 08:35:08;;;;;;;9.57;6.70;;;;;;;18.80;45.69;101640.69;5046344;28;20386;-63
2022/10/14 08:37:35;;;;;;;11.57;6.25;;;;;;;18.87;45.54;101649.66;5045943;28;20887;-63
2022/10/14 08:40:00;;;;;;;12.63;5.45;;;;;;;18.90;45.26;101654.63;5043215;28;21006;-65
2022/10/14 08:42:34;;;;;;;10.93;4.70;;;;;;;18.85;45.00;101646.34;5045554;28;20389;-63
2022/10/14 08:45:15;;;;;;;9.77;5.03;;;;;;;18.80;44.44;101636.19;5046282;28;20961;-63
2022/10/14 08:47:45;;;;;;;13.83;5.63;;;;;;;18.64;44.40;101636.53;5044818;28;20400;-64
2022/10/14 08:50:25;;;;;;;13.00;5.20;;;;;;;18.63;44.65;101651.81;5046165;28;20389;-64
2022/10/14 08:53:08;;;;;;;10.15;5.30;;;;;;;18.66;44.68;101655.97;5046029;28;20389;-63
2022/10/14 08:55:40;;;;;;;10.32;5.00;;;;;;;18.60;44.97;101643.31;5045763;28;20896;-63
2022/10/14 08:58:24;;;;;;;9.43;5.53;;;;;;;18.63;45.13;101646.44;5046110;28;20945;-63
2022/10/14 09:00:52;;;;;;;8.53;5.33;;;;;;;18.70;45.42;101639.22;5045858;28;20397;-62
2022/10/14 09:03:22;;;;;;;9.85;5.75;;;;;;;18.99;45.07;101644.53;5046227;28;20815;-63
2022/10/14 09:05:57;;;;;;;13.65;6.03;;;;;;;18.88;44.67;101644.06;5045639;28;20400;-62
2022/10/14 09:08:29;;;;;;;8.60;5.63;;;;;;;18.48;45.63;101641.22;5045822;28;20415;-63
2022/10/14 09:10:56;;;;;;;10.32;5.65;;;;;;;18.50;45.75;101636.47;5045804;28;20937;-63
2022/10/14 09:13:44;;;;;;;11.63;5.57;;;;;;;18.58;45.46;101640.00;5045551;28;20440;-64
2022/10/14 09:16:30;;;;;;;10.27;5.07;;;;;;;18.73;45.40;101641.53;5037376;28;20839;-63
2022/10/14 09:19:01;;;;;;;10.23;5.07;;;;;;;18.77;44.94;101635.75;5032427;28;20399;-64
2022/10/14 09:21:38;;;;;;;6.72;4.38;;;;;;;18.83;44.49;101634.97;5032238;28;20390;-63
2022/10/14 09:24:24;;;;;;;6.95;4.38;;;;;;;18.79;44.28;101639.06;5032135;28;20468;-63
2022/10/14 09:27:04;;;;;;;7.33;4.10;;;;;;;18.71;43.80;101632.03;5018056;28;20396;-63
2022/10/14 09:29:41;;;;;;;7.57;4.63;;;;;;;18.62;43.69;101631.38;5032262;28;20426;-63
2022/10/14 09:32:11;;;;;;;7.32;4.50;;;;;;;18.63;44.05;101629.50;5030578;28;20395;-63
2022/10/14 09:34:41;;;;;;;9.07;4.60;;;;;;;18.63;44.13;101630.31;5031855;28;20903;-64
2022/10/14 09:37:09;;;;;;;8.45;5.00;;;;;;;18.59;44.31;101623.72;5031940;28;20481;-63
2022/10/14 09:39:38;;;;;;;8.55;5.10;;;;;;;18.55;44.38;101625.16;5032051;28;20876;-63
2022/10/14 09:42:04;;;;;;;7.13;5.03;;;;;;;18.55;44.45;101619.78;5031666;28;20379;-63
2022/10/14 09:44:30;;;;;;;10.13;5.60;;;;;;;18.59;44.56;101617.50;5031358;28;20789;-63
2022/10/14 09:49:02;;;;;;;8.38;5.63;;;;;;;18.65;44.32;101612.16;5070674;27;20404;-62
2022/10/14 09:51:33;;;;;;;7.60;5.55;;;;;;;18.73;44.50;101608.47;5066897;28;20392;-62
2022/10/14 09:54:01;;;;;;;9.95;5.70;;;;;;;18.82;44.40;101625.28;5066746;28;20403;-62
2022/10/14 09:56:30;;;;;;;9.07;5.55;;;;;;;18.84;44.18;101621.34;5066539;28;20415;-63
2022/10/14 09:58:57;;;;;;;8.48;5.35;;;;;;;18.85;44.12;101614.09;5066793;28;20376;-62
2022/10/14 10:01:28;;;;;;;10.63;5.28;;;;;;;18.77;44.47;101617.78;5066392;28;20388;-63
2022/10/14 10:03:55;;;;;;;7.88;5.35;;;;;;;18.85;44.36;101614.09;5066657;28;20391;-63
2022/10/14 10:06:24;;;;;;;11.63;5.50;;;;;;;18.87;44.17;101612.03;5066445;28;20376;-64
2022/10/14 10:08:52;;;;;;;11.33;5.57;;;;;;;18.87;44.10;101607.50;5066242;28;20462;-62
2022/10/14 10:11:36;;;;;;;14.63;5.90;;;;;;;18.85;44.04;101601.50;5066437;28;20403;-63
2022/10/14 10:14:28;;;;;;;10.77;5.90;;;;;;;18.82;43.77;101604.59;5066564;28;20388;-63
2022/10/14 10:17:06;;;;;;;10.30;5.30;;;;;;;18.73;44.07;101601.22;5066463;28;20462;-62
2022/10/14 10:20:32;;;;;;;8.77;5.32;;;;;;;18.94;44.14;101606.69;5081973;27;2039496;-63
2022/10/14 10:23:24;;;;;;;12.13;5.80;;;;;;;18.81;43.91;101600.25;5127493;28;20391;-61
2022/10/14 10:25:50;;;;;;;11.45;5.10;;;;;;;18.84;43.47;101586.41;5127654;28;20399;-63
2022/10/14 10:28:25;;;;;;;7.43;4.97;;;;;;;18.90;43.82;101595.50;5127857;28;20466;-63
2022/10/14 10:31:24;;;;;;;9.90;5.47;;;;;;;18.96;44.09;101583.13;5127518;28;20432;-65
2022/10/14 10:34:11;;;;;;;10.23;5.25;;;;;;;19.17;43.47;101588.31;5109043;28;20383;-62
2022/10/14 10:36:49;;;;;;;9.95;5.07;;;;;;;19.11;43.59;101578.41;5127526;28;20471;-63
2022/10/14 10:40:04;;;;;;;8.53;5.00;;;;;;;19.21;43.37;101575.28;5127435;28;20497;-62
2022/10/14 10:43:06;;;;;;;8.20;4.88;;;;;;;19.15;43.17;101566.19;5104843;28;20417;-63
2022/10/14 10:46:11;;;;;;;9.55;5.10;;;;;;;19.11;43.30;101564.97;5127304;28;20379;-63
2022/10/14 10:48:46;;;;;;;8.20;5.18;;;;;;;19.21;43.53;101560.00;5127390;28;20494;-62
2022/10/14 10:51:53;;;;;;;9.38;5.00;;;;;;;19.29;43.20;101564.34;5127089;28;20429;-62
2022/10/14 10:54:30;;;;;;;10.90;5.03;;;;;;;19.34;43.25;101561.03;5125819;28;20746;-63
2022/10/14 10:57:07;;;;;;;8.32;4.72;;;;;;;19.46;42.87;101556.66;5127159;28;20383;-63
2022/10/14 10:59:56;;;;;;;10.35;5.00;;;;;;;19.59;42.52;101558.50;5127024;28;20406;-63
2022/10/14 11:02:32;;;;;;;8.23;4.38;;;;;;;19.61;42.20;101551.09;5127135;28;20759;-62
2022/10/14 11:05:11;;;;;;;11.00;4.35;;;;;;;19.60;41.98;101550.25;5112894;28;20383;-63
2022/10/14 11:14:30;;;;;;;8.05;4.10;;;;;;;19.73;41.20;101535.13;5067876;28;20401;-62
2022/10/14 11:17:08;;;;;;;7.80;4.05;;;;;;;19.81;40.94;101532.25;5109763;28;20383;-62
2022/10/14 11:19:39;;;;;;;8.50;4.03;;;;;;;19.70;40.88;101520.25;5126447;28;20509;-61
2022/10/14 11:22:32;;;;;;;7.67;3.80;;;;;;;19.76;41.08;101522.09;5126735;28;20389;-63
2022/10/14 11:25:06;;;;;;;6.80;4.00;;;;;;;19.75;40.98;101523.13;5126269;28;20375;-63
2022/10/14 11:27:42;;;;;;;11.50;4.70;;;;;;;19.76;41.11;101515.91;5112207;28;20891;-62
2022/10/14 11:30:27;;;;;;;6.88;4.10;;;;;;;19.81;41.09;101510.72;5121691;28;20387;-63
2022/10/14 11:32:59;;;;;;;11.25;4.57;;;;;;;19.89;41.37;101509.66;5100605;28;20391;-62
2022/10/14 11:37:32;;;;;;;12.77;4.97;;;;;;;19.83;41.71;101509.47;5105661;27;20404;-63
2022/10/14 11:40:29;;;;;;;10.07;4.75;;;;;;;19.97;41.41;101506.72;5106435;28;20404;-63
2022/10/14 11:43:12;;;;;;;8.93;4.38;;;;;;;20.09;41.38;101494.25;5106620;28;20396;-63
2022/10/14 11:46:12;;;;;;;5.83;3.90;;;;;;;20.15;41.18;101492.56;5107247;28;20463;-63
2022/10/14 11:48:47;;;;;;;7.72;4.30;;;;;;;20.08;41.58;101486.38;5107001;28;20486;-62
2022/10/14 11:51:26;;;;;;;10.45;4.55;;;;;;;20.13;41.82;101482.03;5106755;28;20377;-62
2022/10/14 11:53:58;;;;;;;6.70;4.43;;;;;;;20.16;41.73;101492.34;5107174;28;20417;-63
2022/10/14 11:56:35;;;;;;;10.85;4.72;;;;;;;20.13;41.89;101486.56;5106597;28;20418;-63
2022/10/14 11:59:17;;;;;;;8.88;4.40;;;;;;;20.23;41.95;101478.84;5107015;28;20870;-63
2022/10/14 12:03:43;;;;;;;9.93;4.77;;;;;;;20.33;42.10;101470.28;5147135;27;20453;-63
2022/10/14 12:06:25;;;;;;;7.20;4.00;;;;;;;20.43;42.18;101468.78;5127639;28;20395;-63
2022/10/14 12:09:03;;;;;;;5.93;3.50;;;;;;;20.41;42.06;101465.47;5127699;28;20379;-63
2022/10/14 12:11:43;;;;;;;8.05;4.00;;;;;;;20.41;42.42;101467.34;5127954;28;20383;-64
2022/10/14 12:14:41;;;;;;;7.15;3.70;;;;;;;20.53;42.29;101451.34;5127847;28;20386;-62
2022/10/14 12:17:34;;;;;;;8.98;4.18;;;;;;;20.53;42.17;101454.03;5127415;28;20417;-64
2022/10/14 12:20:16;;;;;;;8.37;3.67;;;;;;;20.60;42.17;101452.13;5127579;28;20389;-63
2022/10/14 12:22:44;;;;;;;7.15;3.25;;;;;;;20.49;41.64;101450.09;5127229;28;20915;-63
2022/10/14 12:25:13;;;;;;;5.82;3.17;;;;;;;20.38;41.46;101439.00;5127375;28;20367;-63
2022/10/14 12:27:39;;;;;;;7.28;3.20;;;;;;;20.36;41.63;101446.44;5127576;28;20375;-62
2022/10/14 12:30:36;;;;;;;6.37;3.10;;;;;;;20.42;41.23;101434.81;5127268;28;20367;-64
2022/10/14 12:35:52;;;;;;;4.85;2.90;;;;;;;20.51;41.04;101431.84;5053454;28;20915;-62
2022/10/14 12:38:19;;;;;;;6.00;3.08;;;;;;;20.53;40.99;101427.91;5046129;28;20459;-63
2022/10/14 12:40:48;;;;;;;4.70;3.00;;;;;;;20.52;41.13;101436.22;5031782;28;20402;-62
2022/10/14 12:43:16;;;;;;;7.93;3.17;;;;;;;20.47;40.70;101442.25;5039727;28;20420;-61
2022/10/14 12:46:00;;;;;;;4.15;2.80;;;;;;;20.54;40.40;101432.25;5037653;28;20896;-62
2022/10/14 12:48:30;;;;;;;5.77;2.77;;;;;;;20.63;40.52;101422.06;5041124;28;20389;-61
2022/10/14 12:51:21;;;;;;;5.43;2.72;;;;;;;20.70;40.34;101422.00;5038001;28;20387;-62
2022/10/14 12:53:49;;;;;;;5.97;3.22;;;;;;;20.78;40.48;101421.75;5039184;28;20575;-63
2022/10/14 12:56:29;;;;;;;6.45;2.83;;;;;;;20.84;40.67;101417.34;5040387;28;20820;-62